sensor_id;sensor_type;location;lat;lon;timestamp;P1;durP1;ratioP1;P2;durP2;ratioP2
36629;SDS011;36256;42.154;23.002;2023-04-03T00:00:31;5.25;;;3.25;;
36629;SDS011;36256;42.154;23.002;2023-04-03T00:02:58;8.00;;;2.85;;
36629;SDS011;36256;42.154;23.002;2023-04-03T00:05:25;6.05;;;3.17;;
36629;SDS011;36256;42.154;23.002;2023-04-03T00:07:52;4.82;;;3.00;;
36629;SDS011;36256;42.154;23.002;2023-04-03T00:10:19;7.35;;;3.20;;
36629;SDS011;36256;42.154;23.002;2023-04-03T00:12:46;4.70;;;3.00;;
36629;SDS011;36256;42.154;23.002;2023-04-03T00:15:12;5.43;;;3.20;;
36629;SDS011;36256;42.154;23.002;2023-04-03T00:17:39;7.75;;;3.42;;
36629;SDS011;36256;42.154;23.002;2023-04-03T00:20:06;5.32;;;3.17;;
36629;SDS011;36256;42.154;23.002;2023-04-03T00:22:33;6.82;;;3.30;;
36629;SDS011;36256;42.154;23.002;2023-04-03T00:24:59;6.63;;;3.30;;
36629;SDS011;36256;42.154;23.002;2023-04-03T00:27:26;5.47;;;3.42;;
36629;SDS011;36256;42.154;23.002;2023-04-03T00:29:53;5.65;;;3.58;;
36629;SDS011;36256;42.154;23.002;2023-04-03T00:32:19;8.32;;;4.03;;
36629;SDS011;36256;42.154;23.002;2023-04-03T00:34:46;9.93;;;3.77;;
36629;SDS011;36256;42.154;23.002;2023-04-03T00:37:13;7.72;;;3.67;;
36629;SDS011;36256;42.154;23.002;2023-04-03T00:39:39;4.35;;;3.20;;
36629;SDS011;36256;42.154;23.002;2023-04-03T00:42:06;6.13;;;3.67;;
36629;SDS011;36256;42.154;23.002;2023-04-03T00:47:00;6.90;;;5.00;;
36629;SDS011;36256;42.154;23.002;2023-04-03T00:54:21;7.53;;;4.35;;
36629;SDS011;36256;42.154;23.002;2023-04-03T00:56:49;7.15;;;4.32;;
36629;SDS011;36256;42.154;23.002;2023-04-03T00:59:25;6.53;;;4.50;;
36629;SDS011;36256;42.154;23.002;2023-04-03T01:01:56;7.93;;;3.80;;
36629;SDS011;36256;42.154;23.002;2023-04-03T01:04:31;6.22;;;4.07;;
36629;SDS011;36256;42.154;23.002;2023-04-03T01:07:02;7.18;;;4.22;;
36629;SDS011;36256;42.154;23.002;2023-04-03T01:09:32;7.95;;;4.13;;
36629;SDS011;36256;42.154;23.002;2023-04-03T01:14:45;6.82;;;4.10;;
36629;SDS011;36256;42.154;23.002;2023-04-03T01:17:34;7.95;;;3.75;;
36629;SDS011;36256;42.154;23.002;2023-04-03T01:25:22;6.65;;;3.88;;
36629;SDS011;36256;42.154;23.002;2023-04-03T01:30:17;5.88;;;3.10;;
36629;SDS011;36256;42.154;23.002;2023-04-03T01:32:45;5.13;;;2.70;;
36629;SDS011;36256;42.154;23.002;2023-04-03T01:35:12;6.70;;;3.40;;
36629;SDS011;36256;42.154;23.002;2023-04-03T01:37:39;5.97;;;3.20;;
36629;SDS011;36256;42.154;23.002;2023-04-03T01:40:06;5.97;;;3.42;;
36629;SDS011;36256;42.154;23.002;2023-04-03T01:42:33;6.25;;;3.72;;
36629;SDS011;36256;42.154;23.002;2023-04-03T01:45:01;5.78;;;3.33;;
36629;SDS011;36256;42.154;23.002;2023-04-03T01:47:27;6.30;;;3.83;;
36629;SDS011;36256;42.154;23.002;2023-04-03T01:49:54;4.55;;;3.25;;
36629;SDS011;36256;42.154;23.002;2023-04-03T01:52:21;5.55;;;3.10;;
36629;SDS011;36256;42.154;23.002;2023-04-03T01:54:47;3.67;;;2.85;;
36629;SDS011;36256;42.154;23.002;2023-04-03T01:57:14;7.90;;;3.63;;
36629;SDS011;36256;42.154;23.002;2023-04-03T01:59:41;6.32;;;4.03;;
36629;SDS011;36256;42.154;23.002;2023-04-03T02:02:08;5.93;;;4.10;;
36629;SDS011;36256;42.154;23.002;2023-04-03T02:04:34;7.60;;;4.20;;
36629;SDS011;36256;42.154;23.002;2023-04-03T02:07:01;4.78;;;3.33;;
36629;SDS011;36256;42.154;23.002;2023-04-03T02:09:28;8.10;;;4.03;;
36629;SDS011;36256;42.154;23.002;2023-04-03T02:11:55;7.78;;;4.40;;
36629;SDS011;36256;42.154;23.002;2023-04-03T02:14:21;9.15;;;4.25;;
36629;SDS011;36256;42.154;23.002;2023-04-03T02:16:49;7.32;;;3.67;;
36629;SDS011;36256;42.154;23.002;2023-04-03T02:19:16;8.93;;;3.40;;
36629;SDS011;36256;42.154;23.002;2023-04-03T02:21:43;7.88;;;3.65;;
36629;SDS011;36256;42.154;23.002;2023-04-03T02:24:09;6.53;;;4.00;;
36629;SDS011;36256;42.154;23.002;2023-04-03T02:26:36;4.75;;;3.00;;
36629;SDS011;36256;42.154;23.002;2023-04-03T02:31:30;14.88;;;6.60;;
36629;SDS011;36256;42.154;23.002;2023-04-03T02:33:59;7.47;;;4.40;;
36629;SDS011;36256;42.154;23.002;2023-04-03T02:36:25;7.53;;;4.80;;
36629;SDS011;36256;42.154;23.002;2023-04-03T02:38:52;5.70;;;3.50;;
36629;SDS011;36256;42.154;23.002;2023-04-03T02:41:19;10.60;;;6.43;;
36629;SDS011;36256;42.154;23.002;2023-04-03T02:43:47;10.57;;;7.70;;
36629;SDS011;36256;42.154;23.002;2023-04-03T02:46:13;13.77;;;7.13;;
36629;SDS011;36256;42.154;23.002;2023-04-03T02:48:42;8.85;;;5.90;;
36629;SDS011;36256;42.154;23.002;2023-04-03T02:51:08;5.07;;;3.60;;
36629;SDS011;36256;42.154;23.002;2023-04-03T02:53:35;5.80;;;3.67;;
36629;SDS011;36256;42.154;23.002;2023-04-03T02:56:01;5.82;;;3.88;;
36629;SDS011;36256;42.154;23.002;2023-04-03T02:58:28;7.40;;;3.50;;
36629;SDS011;36256;42.154;23.002;2023-04-03T03:00:54;5.13;;;3.60;;
36629;SDS011;36256;42.154;23.002;2023-04-03T03:03:21;3.67;;;2.95;;
36629;SDS011;36256;42.154;23.002;2023-04-03T03:05:48;4.60;;;3.15;;
36629;SDS011;36256;42.154;23.002;2023-04-03T03:08:14;10.52;;;4.82;;
36629;SDS011;36256;42.154;23.002;2023-04-03T03:10:41;7.70;;;3.53;;
36629;SDS011;36256;42.154;23.002;2023-04-03T03:13:08;12.32;;;7.70;;
36629;SDS011;36256;42.154;23.002;2023-04-03T03:15:34;17.02;;;10.30;;
36629;SDS011;36256;42.154;23.002;2023-04-03T03:18:01;11.98;;;7.68;;
36629;SDS011;36256;42.154;23.002;2023-04-03T03:20:28;32.42;;;22.65;;
36629;SDS011;36256;42.154;23.002;2023-04-03T03:22:54;32.90;;;17.40;;
36629;SDS011;36256;42.154;23.002;2023-04-03T03:25:21;27.05;;;15.93;;
36629;SDS011;36256;42.154;23.002;2023-04-03T03:27:48;23.77;;;12.73;;
36629;SDS011;36256;42.154;23.002;2023-04-03T03:30:15;22.83;;;13.10;;
36629;SDS011;36256;42.154;23.002;2023-04-03T03:32:41;15.60;;;8.15;;
36629;SDS011;36256;42.154;23.002;2023-04-03T03:35:09;29.70;;;13.98;;
36629;SDS011;36256;42.154;23.002;2023-04-03T03:37:35;47.90;;;19.52;;
36629;SDS011;36256;42.154;23.002;2023-04-03T03:40:02;61.10;;;23.48;;
36629;SDS011;36256;42.154;23.002;2023-04-03T03:42:29;94.45;;;32.17;;
36629;SDS011;36256;42.154;23.002;2023-04-03T03:44:55;230.13;;;76.63;;
36629;SDS011;36256;42.154;23.002;2023-04-03T03:47:22;173.73;;;66.63;;
36629;SDS011;36256;42.154;23.002;2023-04-03T03:49:48;126.82;;;59.70;;
36629;SDS011;36256;42.154;23.002;2023-04-03T03:52:15;37.25;;;20.13;;
36629;SDS011;36256;42.154;23.002;2023-04-03T03:54:42;17.33;;;10.10;;
36629;SDS011;36256;42.154;23.002;2023-04-03T03:57:08;15.02;;;7.85;;
36629;SDS011;36256;42.154;23.002;2023-04-03T03:59:35;13.82;;;7.75;;
36629;SDS011;36256;42.154;23.002;2023-04-03T04:02:02;17.02;;;10.45;;
36629;SDS011;36256;42.154;23.002;2023-04-03T04:04:28;24.02;;;9.65;;
36629;SDS011;36256;42.154;23.002;2023-04-03T04:06:56;20.83;;;11.38;;
36629;SDS011;36256;42.154;23.002;2023-04-03T04:09:22;18.83;;;10.80;;
36629;SDS011;36256;42.154;23.002;2023-04-03T04:11:49;27.00;;;13.37;;
36629;SDS011;36256;42.154;23.002;2023-04-03T04:14:15;15.17;;;9.03;;
36629;SDS011;36256;42.154;23.002;2023-04-03T04:16:42;15.43;;;8.23;;
36629;SDS011;36256;42.154;23.002;2023-04-03T04:19:09;15.18;;;6.90;;
36629;SDS011;36256;42.154;23.002;2023-04-03T04:21:35;9.98;;;6.20;;
36629;SDS011;36256;42.154;23.002;2023-04-03T04:24:02;14.20;;;6.85;;
36629;SDS011;36256;42.154;23.002;2023-04-03T04:26:29;10.25;;;4.90;;
36629;SDS011;36256;42.154;23.002;2023-04-03T04:28:55;10.07;;;4.93;;
36629;SDS011;36256;42.154;23.002;2023-04-03T04:31:22;10.27;;;6.30;;
36629;SDS011;36256;42.154;23.002;2023-04-03T04:33:49;13.57;;;7.10;;
36629;SDS011;36256;42.154;23.002;2023-04-03T04:36:15;15.85;;;6.78;;
36629;SDS011;36256;42.154;23.002;2023-04-03T04:38:42;15.55;;;9.02;;
36629;SDS011;36256;42.154;23.002;2023-04-03T04:41:09;16.20;;;8.48;;
36629;SDS011;36256;42.154;23.002;2023-04-03T04:43:35;10.43;;;6.10;;
36629;SDS011;36256;42.154;23.002;2023-04-03T04:46:06;15.05;;;7.03;;
36629;SDS011;36256;42.154;23.002;2023-04-03T04:48:34;12.15;;;6.28;;
36629;SDS011;36256;42.154;23.002;2023-04-03T04:51:01;13.32;;;6.05;;
36629;SDS011;36256;42.154;23.002;2023-04-03T04:53:28;14.10;;;7.05;;
36629;SDS011;36256;42.154;23.002;2023-04-03T04:55:55;14.43;;;8.18;;
36629;SDS011;36256;42.154;23.002;2023-04-03T04:58:22;14.00;;;8.07;;
36629;SDS011;36256;42.154;23.002;2023-04-03T05:00:49;20.50;;;11.85;;
36629;SDS011;36256;42.154;23.002;2023-04-03T05:03:15;32.85;;;18.23;;
36629;SDS011;36256;42.154;23.002;2023-04-03T05:05:42;33.08;;;16.90;;
36629;SDS011;36256;42.154;23.002;2023-04-03T05:08:09;27.15;;;15.93;;
36629;SDS011;36256;42.154;23.002;2023-04-03T05:10:35;26.90;;;14.65;;
36629;SDS011;36256;42.154;23.002;2023-04-03T05:13:02;19.67;;;13.32;;
36629;SDS011;36256;42.154;23.002;2023-04-03T05:15:28;25.42;;;14.57;;
36629;SDS011;36256;42.154;23.002;2023-04-03T05:17:56;22.33;;;11.95;;
36629;SDS011;36256;42.154;23.002;2023-04-03T05:20:22;22.05;;;10.68;;
36629;SDS011;36256;42.154;23.002;2023-04-03T05:22:49;19.53;;;10.70;;
36629;SDS011;36256;42.154;23.002;2023-04-03T05:25:17;19.13;;;10.80;;
36629;SDS011;36256;42.154;23.002;2023-04-03T05:27:44;21.55;;;11.57;;
36629;SDS011;36256;42.154;23.002;2023-04-03T05:30:11;18.70;;;10.75;;
36629;SDS011;36256;42.154;23.002;2023-04-03T05:32:37;19.35;;;10.00;;
36629;SDS011;36256;42.154;23.002;2023-04-03T05:35:04;21.65;;;11.20;;
36629;SDS011;36256;42.154;23.002;2023-04-03T05:37:32;30.27;;;16.10;;
36629;SDS011;36256;42.154;23.002;2023-04-03T05:39:59;24.40;;;14.15;;
36629;SDS011;36256;42.154;23.002;2023-04-03T05:42:26;25.77;;;12.80;;
36629;SDS011;36256;42.154;23.002;2023-04-03T05:44:53;23.75;;;12.38;;
36629;SDS011;36256;42.154;23.002;2023-04-03T05:47:19;18.20;;;11.00;;
36629;SDS011;36256;42.154;23.002;2023-04-03T05:49:46;18.20;;;10.30;;
36629;SDS011;36256;42.154;23.002;2023-04-03T05:52:26;16.63;;;8.77;;
36629;SDS011;36256;42.154;23.002;2023-04-03T05:54:54;43.05;;;15.95;;
36629;SDS011;36256;42.154;23.002;2023-04-03T05:57:21;84.50;;;33.05;;
36629;SDS011;36256;42.154;23.002;2023-04-03T05:59:48;67.78;;;26.15;;
36629;SDS011;36256;42.154;23.002;2023-04-03T06:02:16;51.72;;;20.10;;
36629;SDS011;36256;42.154;23.002;2023-04-03T06:04:44;131.23;;;45.55;;
36629;SDS011;36256;42.154;23.002;2023-04-03T06:07:12;113.70;;;40.13;;
36629;SDS011;36256;42.154;23.002;2023-04-03T06:09:42;130.27;;;49.80;;
36629;SDS011;36256;42.154;23.002;2023-04-03T06:12:09;97.05;;;36.10;;
36629;SDS011;36256;42.154;23.002;2023-04-03T06:14:36;26.08;;;13.23;;
36629;SDS011;36256;42.154;23.002;2023-04-03T06:17:03;13.20;;;8.25;;
36629;SDS011;36256;42.154;23.002;2023-04-03T06:21:57;9.13;;;6.18;;
36629;SDS011;36256;42.154;23.002;2023-04-03T06:24:24;8.70;;;5.70;;
36629;SDS011;36256;42.154;23.002;2023-04-03T06:26:51;13.25;;;6.10;;
36629;SDS011;36256;42.154;23.002;2023-04-03T06:31:46;9.05;;;4.22;;
36629;SDS011;36256;42.154;23.002;2023-04-03T06:34:13;10.80;;;5.45;;
36629;SDS011;36256;42.154;23.002;2023-04-03T06:36:40;10.75;;;5.90;;
36629;SDS011;36256;42.154;23.002;2023-04-03T06:39:06;9.77;;;5.50;;
36629;SDS011;36256;42.154;23.002;2023-04-03T06:41:33;12.73;;;6.28;;
36629;SDS011;36256;42.154;23.002;2023-04-03T06:44:02;11.43;;;6.80;;
36629;SDS011;36256;42.154;23.002;2023-04-03T06:46:29;11.05;;;6.20;;
36629;SDS011;36256;42.154;23.002;2023-04-03T06:48:56;11.98;;;6.95;;
36629;SDS011;36256;42.154;23.002;2023-04-03T06:53:51;16.10;;;9.45;;
36629;SDS011;36256;42.154;23.002;2023-04-03T06:56:19;10.90;;;6.55;;
36629;SDS011;36256;42.154;23.002;2023-04-03T06:58:46;12.38;;;6.65;;
36629;SDS011;36256;42.154;23.002;2023-04-03T07:01:14;10.55;;;6.60;;
36629;SDS011;36256;42.154;23.002;2023-04-03T07:03:42;10.90;;;7.63;;
36629;SDS011;36256;42.154;23.002;2023-04-03T07:06:10;9.38;;;6.97;;
36629;SDS011;36256;42.154;23.002;2023-04-03T07:08:38;12.50;;;6.43;;
36629;SDS011;36256;42.154;23.002;2023-04-03T07:11:06;12.40;;;8.10;;
36629;SDS011;36256;42.154;23.002;2023-04-03T07:13:32;17.45;;;8.35;;
36629;SDS011;36256;42.154;23.002;2023-04-03T07:15:59;13.32;;;7.20;;
36629;SDS011;36256;42.154;23.002;2023-04-03T07:18:27;21.35;;;9.30;;
36629;SDS011;36256;42.154;23.002;2023-04-03T07:20:53;20.00;;;9.43;;
36629;SDS011;36256;42.154;23.002;2023-04-03T07:23:20;14.07;;;7.25;;
36629;SDS011;36256;42.154;23.002;2023-04-03T07:25:48;10.60;;;6.13;;
36629;SDS011;36256;42.154;23.002;2023-04-03T07:28:16;9.80;;;6.45;;
36629;SDS011;36256;42.154;23.002;2023-04-03T07:30:48;14.35;;;8.95;;
36629;SDS011;36256;42.154;23.002;2023-04-03T07:33:17;11.13;;;6.05;;
36629;SDS011;36256;42.154;23.002;2023-04-03T07:35:45;9.35;;;4.88;;
36629;SDS011;36256;42.154;23.002;2023-04-03T07:38:12;37.20;;;12.02;;
36629;SDS011;36256;42.154;23.002;2023-04-03T07:40:39;8.77;;;5.15;;
36629;SDS011;36256;42.154;23.002;2023-04-03T07:43:06;24.00;;;6.22;;
36629;SDS011;36256;42.154;23.002;2023-04-03T07:45:34;16.92;;;4.25;;
36629;SDS011;36256;42.154;23.002;2023-04-03T07:48:03;6.40;;;2.90;;
36629;SDS011;36256;42.154;23.002;2023-04-03T07:50:30;6.55;;;3.00;;
36629;SDS011;36256;42.154;23.002;2023-04-03T07:52:58;4.35;;;3.00;;
36629;SDS011;36256;42.154;23.002;2023-04-03T07:55:25;6.38;;;3.47;;
36629;SDS011;36256;42.154;23.002;2023-04-03T07:57:52;5.90;;;4.07;;
36629;SDS011;36256;42.154;23.002;2023-04-03T08:00:19;13.23;;;10.80;;
36629;SDS011;36256;42.154;23.002;2023-04-03T08:02:45;5.50;;;3.60;;
36629;SDS011;36256;42.154;23.002;2023-04-03T08:05:18;13.88;;;5.93;;
36629;SDS011;36256;42.154;23.002;2023-04-03T08:10:13;20.15;;;11.70;;
36629;SDS011;36256;42.154;23.002;2023-04-03T08:12:40;9.70;;;6.57;;
36629;SDS011;36256;42.154;23.002;2023-04-03T08:15:08;7.80;;;4.40;;
36629;SDS011;36256;42.154;23.002;2023-04-03T08:17:35;6.68;;;4.10;;
36629;SDS011;36256;42.154;23.002;2023-04-03T08:20:03;6.10;;;3.60;;
36629;SDS011;36256;42.154;23.002;2023-04-03T08:22:31;6.50;;;3.70;;
36629;SDS011;36256;42.154;23.002;2023-04-03T08:24:57;6.50;;;4.70;;
36629;SDS011;36256;42.154;23.002;2023-04-03T08:27:25;14.13;;;4.95;;
36629;SDS011;36256;42.154;23.002;2023-04-03T08:29:53;10.15;;;5.30;;
36629;SDS011;36256;42.154;23.002;2023-04-03T08:32:20;8.40;;;4.38;;
36629;SDS011;36256;42.154;23.002;2023-04-03T08:34:47;6.18;;;3.70;;
36629;SDS011;36256;42.154;23.002;2023-04-03T08:37:14;9.65;;;4.13;;
36629;SDS011;36256;42.154;23.002;2023-04-03T08:39:42;8.60;;;5.45;;
36629;SDS011;36256;42.154;23.002;2023-04-03T08:42:19;18.75;;;9.20;;
36629;SDS011;36256;42.154;23.002;2023-04-03T08:47:43;13.93;;;5.97;;
36629;SDS011;36256;42.154;23.002;2023-04-03T08:50:23;50.22;;;15.40;;
36629;SDS011;36256;42.154;23.002;2023-04-03T08:52:56;89.15;;;28.98;;
36629;SDS011;36256;42.154;23.002;2023-04-03T08:55:29;20.02;;;8.48;;
36629;SDS011;36256;42.154;23.002;2023-04-03T08:58:05;12.38;;;5.88;;
36629;SDS011;36256;42.154;23.002;2023-04-03T09:03:32;9.30;;;5.30;;
36629;SDS011;36256;42.154;23.002;2023-04-03T09:17:31;2.08;;;1.65;;
36629;SDS011;36256;42.154;23.002;2023-04-03T09:22:48;2.13;;;1.75;;
36629;SDS011;36256;42.154;23.002;2023-04-03T09:27:49;2.60;;;1.52;;
36629;SDS011;36256;42.154;23.002;2023-04-03T09:30:26;1.65;;;1.42;;
36629;SDS011;36256;42.154;23.002;2023-04-03T09:32:54;2.20;;;1.50;;
36629;SDS011;36256;42.154;23.002;2023-04-03T09:35:30;2.35;;;1.52;;
36629;SDS011;36256;42.154;23.002;2023-04-03T09:43:30;2.08;;;1.40;;
36629;SDS011;36256;42.154;23.002;2023-04-03T09:46:18;2.30;;;1.52;;
36629;SDS011;36256;42.154;23.002;2023-04-03T09:48:52;7.82;;;2.17;;
36629;SDS011;36256;42.154;23.002;2023-04-03T09:51:33;2.72;;;1.65;;
36629;SDS011;36256;42.154;23.002;2023-04-03T09:54:00;3.20;;;1.70;;
36629;SDS011;36256;42.154;23.002;2023-04-03T09:56:53;4.07;;;1.80;;
36629;SDS011;36256;42.154;23.002;2023-04-03T09:59:21;3.92;;;1.88;;
36629;SDS011;36256;42.154;23.002;2023-04-03T10:02:20;21.17;;;3.17;;
36629;SDS011;36256;42.154;23.002;2023-04-03T10:10:35;12.05;;;6.75;;
36629;SDS011;36256;42.154;23.002;2023-04-03T10:13:07;9.55;;;4.80;;
36629;SDS011;36256;42.154;23.002;2023-04-03T10:18:46;3.05;;;2.00;;
36629;SDS011;36256;42.154;23.002;2023-04-03T10:27:05;10.10;;;5.38;;
36629;SDS011;36256;42.154;23.002;2023-04-03T10:29:43;16.10;;;8.82;;
36629;SDS011;36256;42.154;23.002;2023-04-03T10:48:48;12.93;;;7.88;;
36629;SDS011;36256;42.154;23.002;2023-04-03T10:53:56;15.93;;;7.38;;
36629;SDS011;36256;42.154;23.002;2023-04-03T11:02:04;19.23;;;8.25;;
36629;SDS011;36256;42.154;23.002;2023-04-03T11:05:00;14.88;;;7.82;;
36629;SDS011;36256;42.154;23.002;2023-04-03T11:07:36;13.00;;;9.00;;
36629;SDS011;36256;42.154;23.002;2023-04-03T11:10:09;10.18;;;7.60;;
36629;SDS011;36256;42.154;23.002;2023-04-03T11:12:44;14.43;;;7.95;;
36629;SDS011;36256;42.154;23.002;2023-04-03T11:15:16;9.95;;;6.68;;
36629;SDS011;36256;42.154;23.002;2023-04-03T11:17:54;10.15;;;6.13;;
36629;SDS011;36256;42.154;23.002;2023-04-03T11:20:29;7.47;;;5.38;;
36629;SDS011;36256;42.154;23.002;2023-04-03T11:25:42;9.18;;;5.68;;
36629;SDS011;36256;42.154;23.002;2023-04-03T11:28:12;9.40;;;5.97;;
36629;SDS011;36256;42.154;23.002;2023-04-03T11:36:45;8.85;;;5.05;;
36629;SDS011;36256;42.154;23.002;2023-04-03T11:41:45;8.75;;;4.85;;
36629;SDS011;36256;42.154;23.002;2023-04-03T11:47:00;8.57;;;4.95;;
36629;SDS011;36256;42.154;23.002;2023-04-03T12:08:45;15.15;;;9.48;;
36629;SDS011;36256;42.154;23.002;2023-04-03T12:29:20;8.93;;;6.03;;
36629;SDS011;36256;42.154;23.002;2023-04-03T12:34:53;7.63;;;5.15;;
36629;SDS011;36256;42.154;23.002;2023-04-03T12:46:20;16.95;;;10.50;;
36629;SDS011;36256;42.154;23.002;2023-04-03T12:51:28;5.95;;;3.85;;
36629;SDS011;36256;42.154;23.002;2023-04-03T12:54:04;7.88;;;6.40;;
36629;SDS011;36256;42.154;23.002;2023-04-03T12:56:42;4.82;;;3.53;;
36629;SDS011;36256;42.154;23.002;2023-04-03T12:59:18;3.95;;;2.50;;
36629;SDS011;36256;42.154;23.002;2023-04-03T13:01:54;3.45;;;2.78;;
36629;SDS011;36256;42.154;23.002;2023-04-03T13:04:22;3.92;;;3.15;;
36629;SDS011;36256;42.154;23.002;2023-04-03T13:06:49;3.78;;;3.33;;
36629;SDS011;36256;42.154;23.002;2023-04-03T13:09:24;3.20;;;2.60;;
36629;SDS011;36256;42.154;23.002;2023-04-03T13:11:58;4.53;;;2.90;;
36629;SDS011;36256;42.154;23.002;2023-04-03T13:14:28;3.28;;;2.53;;
36629;SDS011;36256;42.154;23.002;2023-04-03T13:17:09;3.13;;;2.83;;
36629;SDS011;36256;42.154;23.002;2023-04-03T13:19:37;3.60;;;2.60;;
36629;SDS011;36256;42.154;23.002;2023-04-03T13:22:06;3.20;;;2.50;;
36629;SDS011;36256;42.154;23.002;2023-04-03T13:24:46;2.97;;;2.67;;
36629;SDS011;36256;42.154;23.002;2023-04-03T13:27:15;2.97;;;2.20;;
36629;SDS011;36256;42.154;23.002;2023-04-03T13:29:48;2.50;;;2.30;;
36629;SDS011;36256;42.154;23.002;2023-04-03T13:32:21;3.97;;;2.80;;
36629;SDS011;36256;42.154;23.002;2023-04-03T13:34:51;4.85;;;3.40;;
36629;SDS011;36256;42.154;23.002;2023-04-03T13:40:01;5.15;;;2.80;;
36629;SDS011;36256;42.154;23.002;2023-04-03T13:42:32;6.35;;;4.57;;
36629;SDS011;36256;42.154;23.002;2023-04-03T13:48:16;2.92;;;2.53;;
36629;SDS011;36256;42.154;23.002;2023-04-03T13:50:59;3.30;;;2.15;;
36629;SDS011;36256;42.154;23.002;2023-04-03T13:53:32;2.42;;;1.85;;
36629;SDS011;36256;42.154;23.002;2023-04-03T13:58:30;5.75;;;3.53;;
36629;SDS011;36256;42.154;23.002;2023-04-03T14:06:21;3.83;;;2.72;;
36629;SDS011;36256;42.154;23.002;2023-04-03T14:08:48;3.08;;;2.30;;
36629;SDS011;36256;42.154;23.002;2023-04-03T14:11:20;6.72;;;3.15;;
36629;SDS011;36256;42.154;23.002;2023-04-03T14:13:57;5.57;;;2.72;;
36629;SDS011;36256;42.154;23.002;2023-04-03T14:16:27;6.53;;;5.22;;
36629;SDS011;36256;42.154;23.002;2023-04-03T14:18:57;5.65;;;3.35;;
36629;SDS011;36256;42.154;23.002;2023-04-03T14:21:24;4.30;;;2.47;;
36629;SDS011;36256;42.154;23.002;2023-04-03T14:23:51;41.35;;;24.27;;
36629;SDS011;36256;42.154;23.002;2023-04-03T14:26:19;30.08;;;18.45;;
36629;SDS011;36256;42.154;23.002;2023-04-03T14:28:48;12.40;;;6.05;;
36629;SDS011;36256;42.154;23.002;2023-04-03T14:31:18;5.05;;;3.30;;
36629;SDS011;36256;42.154;23.002;2023-04-03T14:33:45;16.10;;;8.23;;
36629;SDS011;36256;42.154;23.002;2023-04-03T14:36:23;6.38;;;4.13;;
36629;SDS011;36256;42.154;23.002;2023-04-03T14:38:53;1.95;;;1.63;;
36629;SDS011;36256;42.154;23.002;2023-04-03T14:41:21;20.67;;;11.57;;
36629;SDS011;36256;42.154;23.002;2023-04-03T14:43:50;10.27;;;6.35;;
36629;SDS011;36256;42.154;23.002;2023-04-03T14:46:18;16.70;;;10.02;;
36629;SDS011;36256;42.154;23.002;2023-04-03T14:48:50;15.13;;;8.43;;
36629;SDS011;36256;42.154;23.002;2023-04-03T14:51:17;4.85;;;3.60;;
36629;SDS011;36256;42.154;23.002;2023-04-03T14:53:44;5.65;;;3.00;;
36629;SDS011;36256;42.154;23.002;2023-04-03T14:58:43;3.88;;;1.73;;
36629;SDS011;36256;42.154;23.002;2023-04-03T15:01:11;7.78;;;2.38;;
36629;SDS011;36256;42.154;23.002;2023-04-03T15:03:38;3.97;;;2.75;;
36629;SDS011;36256;42.154;23.002;2023-04-03T15:06:05;2.22;;;1.90;;
36629;SDS011;36256;42.154;23.002;2023-04-03T15:08:32;2.80;;;1.63;;
36629;SDS011;36256;42.154;23.002;2023-04-03T15:10:58;1.65;;;1.40;;
36629;SDS011;36256;42.154;23.002;2023-04-03T15:13:27;1.35;;;1.10;;
36629;SDS011;36256;42.154;23.002;2023-04-03T15:15:53;4.72;;;1.52;;
36629;SDS011;36256;42.154;23.002;2023-04-03T15:18:24;2.88;;;1.88;;
36629;SDS011;36256;42.154;23.002;2023-04-03T15:20:56;4.25;;;2.28;;
36629;SDS011;36256;42.154;23.002;2023-04-03T15:23:22;2.88;;;2.13;;
36629;SDS011;36256;42.154;23.002;2023-04-03T15:25:52;3.45;;;2.53;;
36629;SDS011;36256;42.154;23.002;2023-04-03T15:31:04;2.85;;;2.35;;
36629;SDS011;36256;42.154;23.002;2023-04-03T15:33:32;2.38;;;2.03;;
36629;SDS011;36256;42.154;23.002;2023-04-03T15:36:01;3.58;;;1.90;;
36629;SDS011;36256;42.154;23.002;2023-04-03T15:38:47;3.22;;;2.05;;
36629;SDS011;36256;42.154;23.002;2023-04-03T15:41:14;4.65;;;3.10;;
36629;SDS011;36256;42.154;23.002;2023-04-03T15:43:41;3.15;;;1.65;;
36629;SDS011;36256;42.154;23.002;2023-04-03T15:46:08;3.88;;;2.50;;
36629;SDS011;36256;42.154;23.002;2023-04-03T15:48:35;3.78;;;2.83;;
36629;SDS011;36256;42.154;23.002;2023-04-03T15:51:02;2.85;;;2.33;;
36629;SDS011;36256;42.154;23.002;2023-04-03T15:53:29;2.85;;;2.15;;
36629;SDS011;36256;42.154;23.002;2023-04-03T15:55:56;1.33;;;1.23;;
36629;SDS011;36256;42.154;23.002;2023-04-03T15:58:22;2.25;;;1.40;;
36629;SDS011;36256;42.154;23.002;2023-04-03T16:00:49;3.30;;;1.80;;
36629;SDS011;36256;42.154;23.002;2023-04-03T16:03:16;3.83;;;2.72;;
36629;SDS011;36256;42.154;23.002;2023-04-03T16:05:46;2.25;;;1.30;;
36629;SDS011;36256;42.154;23.002;2023-04-03T16:08:13;2.60;;;2.28;;
36629;SDS011;36256;42.154;23.002;2023-04-03T16:13:07;1.45;;;1.23;;
36629;SDS011;36256;42.154;23.002;2023-04-03T16:15:34;3.00;;;1.83;;
36629;SDS011;36256;42.154;23.002;2023-04-03T16:18:02;1.48;;;1.17;;
36629;SDS011;36256;42.154;23.002;2023-04-03T16:20:29;2.75;;;1.98;;
36629;SDS011;36256;42.154;23.002;2023-04-03T16:22:59;1.98;;;1.42;;
36629;SDS011;36256;42.154;23.002;2023-04-03T16:25:27;1.80;;;1.08;;
36629;SDS011;36256;42.154;23.002;2023-04-03T16:27:54;2.30;;;1.75;;
36629;SDS011;36256;42.154;23.002;2023-04-03T16:30:20;1.20;;;0.98;;
36629;SDS011;36256;42.154;23.002;2023-04-03T16:32:47;2.17;;;1.52;;
36629;SDS011;36256;42.154;23.002;2023-04-03T16:35:14;0.80;;;0.80;;
36629;SDS011;36256;42.154;23.002;2023-04-03T16:37:41;3.58;;;2.38;;
36629;SDS011;36256;42.154;23.002;2023-04-03T16:40:07;1.60;;;0.90;;
36629;SDS011;36256;42.154;23.002;2023-04-03T16:45:03;0.88;;;0.60;;
36629;SDS011;36256;42.154;23.002;2023-04-03T16:47:32;3.35;;;1.98;;
36629;SDS011;36256;42.154;23.002;2023-04-03T16:49:59;3.15;;;2.13;;
36629;SDS011;36256;42.154;23.002;2023-04-03T16:52:26;4.70;;;3.03;;
36629;SDS011;36256;42.154;23.002;2023-04-03T16:54:53;3.45;;;2.30;;
36629;SDS011;36256;42.154;23.002;2023-04-03T16:57:22;4.53;;;3.28;;
36629;SDS011;36256;42.154;23.002;2023-04-03T16:59:51;2.92;;;2.10;;
36629;SDS011;36256;42.154;23.002;2023-04-03T17:02:19;3.72;;;2.00;;
36629;SDS011;36256;42.154;23.002;2023-04-03T17:04:47;5.38;;;2.08;;
36629;SDS011;36256;42.154;23.002;2023-04-03T17:07:17;4.25;;;2.70;;
36629;SDS011;36256;42.154;23.002;2023-04-03T17:09:45;4.18;;;2.40;;
36629;SDS011;36256;42.154;23.002;2023-04-03T17:12:11;3.63;;;2.35;;
36629;SDS011;36256;42.154;23.002;2023-04-03T17:14:38;5.97;;;3.60;;
36629;SDS011;36256;42.154;23.002;2023-04-03T17:17:05;7.72;;;4.40;;
36629;SDS011;36256;42.154;23.002;2023-04-03T17:19:34;6.13;;;2.00;;
36629;SDS011;36256;42.154;23.002;2023-04-03T17:22:03;3.15;;;1.83;;
36629;SDS011;36256;42.154;23.002;2023-04-03T17:24:29;3.22;;;1.30;;
36629;SDS011;36256;42.154;23.002;2023-04-03T17:26:56;3.10;;;1.63;;
36629;SDS011;36256;42.154;23.002;2023-04-03T17:29:23;2.47;;;1.77;;
36629;SDS011;36256;42.154;23.002;2023-04-03T17:31:50;3.30;;;1.70;;
36629;SDS011;36256;42.154;23.002;2023-04-03T17:34:16;5.13;;;3.10;;
36629;SDS011;36256;42.154;23.002;2023-04-03T17:36:43;6.97;;;4.40;;
36629;SDS011;36256;42.154;23.002;2023-04-03T17:39:10;8.63;;;5.05;;
36629;SDS011;36256;42.154;23.002;2023-04-03T17:41:37;1.20;;;1.10;;